Mariazell, Austria
Current Conditions -  °F | °C
As of 6:50 AM on Friday 31 Oct 2014 (Local Time) from LOXZ Reporting Station
Few Clouds Few Clouds  
Wind Chill: 30°   Ceiling: Unl
Heat Index: 30°   Visibility: 6mi
Dew Point: 30°   Wind: 1mph
Humidity: 100%   Direction: NA
Pressure: 30.33"   Gusts: NA
Location:  47.77°N, 15.32°E
Report Text: LOXZ 310450Z VRB01KT 10KM FEW002ST M01/M01 Q1027 RMK FEW
Loading
Personal Weather Stations






























Interactive Weather Map
Tropical Storm Tracking
New forecast layout! Learn more

10-Day Weather Forecast

Advertisements
Track Severe Weather on mobile